sensor_id;sensor_type;location;lat;lon;timestamp;P1;durP1;ratioP1;P2;durP2;ratioP2
42006;SDS011;27696;42.704;23.304;2023-02-01T00:02:22;6.78;;;6.05;;
42006;SDS011;27696;42.704;23.304;2023-02-01T00:04:47;7.85;;;5.18;;
42006;SDS011;27696;42.704;23.304;2023-02-01T00:07:12;7.22;;;5.70;;
42006;SDS011;27696;42.704;23.304;2023-02-01T00:09:38;5.88;;;5.05;;
42006;SDS011;27696;42.704;23.304;2023-02-01T00:12:03;6.72;;;5.53;;
42006;SDS011;27696;42.704;23.304;2023-02-01T00:14:29;8.18;;;5.70;;
42006;SDS011;27696;42.704;23.304;2023-02-01T00:16:55;7.72;;;5.65;;
42006;SDS011;27696;42.704;23.304;2023-02-01T00:19:20;6.13;;;5.53;;
42006;SDS011;27696;42.704;23.304;2023-02-01T00:21:45;7.30;;;5.57;;
42006;SDS011;27696;42.704;23.304;2023-02-01T00:24:11;7.70;;;5.88;;
42006;SDS011;27696;42.704;23.304;2023-02-01T00:26:38;6.80;;;5.70;;
42006;SDS011;27696;42.704;23.304;2023-02-01T00:29:05;8.75;;;6.25;;
42006;SDS011;27696;42.704;23.304;2023-02-01T00:31:34;7.20;;;5.75;;
42006;SDS011;27696;42.704;23.304;2023-02-01T00:33:59;6.35;;;5.72;;
42006;SDS011;27696;42.704;23.304;2023-02-01T00:36:24;7.72;;;6.18;;
42006;SDS011;27696;42.704;23.304;2023-02-01T00:38:50;5.70;;;5.10;;
42006;SDS011;27696;42.704;23.304;2023-02-01T00:41:18;6.85;;;5.18;;
42006;SDS011;27696;42.704;23.304;2023-02-01T00:43:44;7.93;;;5.43;;
42006;SDS011;27696;42.704;23.304;2023-02-01T00:46:11;7.20;;;5.25;;
42006;SDS011;27696;42.704;23.304;2023-02-01T00:48:38;5.90;;;4.47;;
42006;SDS011;27696;42.704;23.304;2023-02-01T00:51:07;6.50;;;5.00;;
42006;SDS011;27696;42.704;23.304;2023-02-01T00:53:35;6.65;;;4.88;;
42006;SDS011;27696;42.704;23.304;2023-02-01T00:56:01;7.05;;;5.45;;
42006;SDS011;27696;42.704;23.304;2023-02-01T00:58:26;5.63;;;4.32;;
42006;SDS011;27696;42.704;23.304;2023-02-01T01:01:02;6.55;;;4.50;;
42006;SDS011;27696;42.704;23.304;2023-02-01T01:03:29;5.55;;;4.32;;
42006;SDS011;27696;42.704;23.304;2023-02-01T01:05:58;6.35;;;4.07;;
42006;SDS011;27696;42.704;23.304;2023-02-01T01:08:24;4.45;;;3.80;;
42006;SDS011;27696;42.704;23.304;2023-02-01T01:10:50;6.18;;;4.00;;
42006;SDS011;27696;42.704;23.304;2023-02-01T01:13:15;6.22;;;3.72;;
42006;SDS011;27696;42.704;23.304;2023-02-01T01:15:41;6.85;;;4.07;;
42006;SDS011;27696;42.704;23.304;2023-02-01T01:18:07;7.03;;;3.88;;
42006;SDS011;27696;42.704;23.304;2023-02-01T01:20:33;10.82;;;4.22;;
42006;SDS011;27696;42.704;23.304;2023-02-01T01:23:01;5.65;;;3.67;;
42006;SDS011;27696;42.704;23.304;2023-02-01T01:25:26;4.68;;;3.50;;
42006;SDS011;27696;42.704;23.304;2023-02-01T01:27:52;4.22;;;3.42;;
42006;SDS011;27696;42.704;23.304;2023-02-01T01:30:17;5.50;;;3.38;;
42006;SDS011;27696;42.704;23.304;2023-02-01T01:32:43;5.13;;;3.60;;
42006;SDS011;27696;42.704;23.304;2023-02-01T01:35:08;7.40;;;3.53;;
42006;SDS011;27696;42.704;23.304;2023-02-01T01:37:34;5.18;;;3.45;;
42006;SDS011;27696;42.704;23.304;2023-02-01T01:40:01;5.28;;;3.40;;
42006;SDS011;27696;42.704;23.304;2023-02-01T01:42:27;4.25;;;3.30;;
42006;SDS011;27696;42.704;23.304;2023-02-01T01:47:25;5.30;;;3.28;;
42006;SDS011;27696;42.704;23.304;2023-02-01T01:49:51;4.97;;;3.25;;
42006;SDS011;27696;42.704;23.304;2023-02-01T01:52:17;5.32;;;3.75;;
42006;SDS011;27696;42.704;23.304;2023-02-01T01:54:45;3.97;;;3.03;;
42006;SDS011;27696;42.704;23.304;2023-02-01T01:57:14;5.80;;;2.85;;
42006;SDS011;27696;42.704;23.304;2023-02-01T01:59:43;5.75;;;3.25;;
42006;SDS011;27696;42.704;23.304;2023-02-01T02:02:13;5.20;;;3.70;;
42006;SDS011;27696;42.704;23.304;2023-02-01T02:04:39;4.32;;;3.42;;
42006;SDS011;27696;42.704;23.304;2023-02-01T02:07:05;8.88;;;4.47;;
42006;SDS011;27696;42.704;23.304;2023-02-01T02:09:34;9.23;;;4.13;;
42006;SDS011;27696;42.704;23.304;2023-02-01T02:12:00;7.20;;;3.53;;
42006;SDS011;27696;42.704;23.304;2023-02-01T02:14:25;7.55;;;4.50;;
42006;SDS011;27696;42.704;23.304;2023-02-01T02:16:59;8.73;;;4.32;;
42006;SDS011;27696;42.704;23.304;2023-02-01T02:19:38;5.22;;;3.17;;
42006;SDS011;27696;42.704;23.304;2023-02-01T02:30:30;8.50;;;3.38;;
42006;SDS011;27696;42.704;23.304;2023-02-01T02:38:55;5.30;;;3.60;;
42006;SDS011;27696;42.704;23.304;2023-02-01T02:45:22;6.28;;;4.25;;
42006;SDS011;27696;42.704;23.304;2023-02-01T02:50:49;8.73;;;4.13;;
42006;SDS011;27696;42.704;23.304;2023-02-01T02:53:38;5.78;;;3.65;;
42006;SDS011;27696;42.704;23.304;2023-02-01T02:56:40;10.98;;;4.57;;
42006;SDS011;27696;42.704;23.304;2023-02-01T02:59:26;9.52;;;4.72;;
42006;SDS011;27696;42.704;23.304;2023-02-01T03:02:11;10.02;;;4.15;;
42006;SDS011;27696;42.704;23.304;2023-02-01T03:04:56;7.82;;;3.67;;
42006;SDS011;27696;42.704;23.304;2023-02-01T03:10:10;5.38;;;3.80;;
42006;SDS011;27696;42.704;23.304;2023-02-01T03:12:42;9.27;;;4.00;;
42006;SDS011;27696;42.704;23.304;2023-02-01T03:15:21;4.63;;;3.30;;
42006;SDS011;27696;42.704;23.304;2023-02-01T03:17:51;6.32;;;3.22;;
42006;SDS011;27696;42.704;23.304;2023-02-01T03:20:19;6.25;;;3.20;;
42006;SDS011;27696;42.704;23.304;2023-02-01T03:22:45;7.55;;;3.38;;
42006;SDS011;27696;42.704;23.304;2023-02-01T03:25:12;5.03;;;3.35;;
42006;SDS011;27696;42.704;23.304;2023-02-01T03:28:02;4.45;;;3.00;;
42006;SDS011;27696;42.704;23.304;2023-02-01T03:30:31;7.97;;;3.33;;
42006;SDS011;27696;42.704;23.304;2023-02-01T03:33:00;6.93;;;3.13;;
42006;SDS011;27696;42.704;23.304;2023-02-01T03:35:30;6.35;;;3.10;;
42006;SDS011;27696;42.704;23.304;2023-02-01T03:38:30;4.53;;;2.90;;
42006;SDS011;27696;42.704;23.304;2023-02-01T03:40:51;6.85;;;3.38;;
42006;SDS011;27696;42.704;23.304;2023-02-01T03:43:19;5.05;;;3.22;;
42006;SDS011;27696;42.704;23.304;2023-02-01T03:45:48;5.00;;;3.53;;
42006;SDS011;27696;42.704;23.304;2023-02-01T03:48:17;6.10;;;3.03;;
42006;SDS011;27696;42.704;23.304;2023-02-01T03:50:44;5.95;;;3.85;;
42006;SDS011;27696;42.704;23.304;2023-02-01T03:53:14;6.72;;;3.58;;
42006;SDS011;27696;42.704;23.304;2023-02-01T03:55:42;6.43;;;3.83;;
42006;SDS011;27696;42.704;23.304;2023-02-01T04:00:40;7.15;;;3.33;;
42006;SDS011;27696;42.704;23.304;2023-02-01T04:03:06;7.00;;;3.40;;
42006;SDS011;27696;42.704;23.304;2023-02-01T04:05:32;5.93;;;3.55;;
42006;SDS011;27696;42.704;23.304;2023-02-01T04:07:58;4.25;;;2.88;;
42006;SDS011;27696;42.704;23.304;2023-02-01T04:10:23;8.73;;;2.90;;
42006;SDS011;27696;42.704;23.304;2023-02-01T04:12:49;5.03;;;3.22;;
42006;SDS011;27696;42.704;23.304;2023-02-01T04:15:14;5.47;;;2.90;;
42006;SDS011;27696;42.704;23.304;2023-02-01T04:17:40;5.00;;;3.05;;
42006;SDS011;27696;42.704;23.304;2023-02-01T04:20:05;4.78;;;3.25;;
42006;SDS011;27696;42.704;23.304;2023-02-01T04:22:31;4.80;;;3.15;;
42006;SDS011;27696;42.704;23.304;2023-02-01T04:24:57;6.30;;;3.00;;
42006;SDS011;27696;42.704;23.304;2023-02-01T04:27:22;5.43;;;2.88;;
42006;SDS011;27696;42.704;23.304;2023-02-01T04:29:48;4.35;;;2.70;;
42006;SDS011;27696;42.704;23.304;2023-02-01T04:32:17;6.88;;;2.92;;
42006;SDS011;27696;42.704;23.304;2023-02-01T04:34:42;6.55;;;3.15;;
42006;SDS011;27696;42.704;23.304;2023-02-01T04:37:08;4.05;;;2.78;;
42006;SDS011;27696;42.704;23.304;2023-02-01T04:39:33;4.10;;;2.60;;
42006;SDS011;27696;42.704;23.304;2023-02-01T04:41:58;6.80;;;3.35;;
42006;SDS011;27696;42.704;23.304;2023-02-01T04:44:24;5.63;;;3.42;;
42006;SDS011;27696;42.704;23.304;2023-02-01T04:46:49;6.85;;;3.72;;
42006;SDS011;27696;42.704;23.304;2023-02-01T04:49:15;6.03;;;4.20;;
42006;SDS011;27696;42.704;23.304;2023-02-01T04:51:41;7.90;;;3.75;;
42006;SDS011;27696;42.704;23.304;2023-02-01T04:54:07;6.55;;;3.25;;
42006;SDS011;27696;42.704;23.304;2023-02-01T04:56:33;6.18;;;3.47;;
42006;SDS011;27696;42.704;23.304;2023-02-01T04:59:00;4.25;;;3.15;;
42006;SDS011;27696;42.704;23.304;2023-02-01T05:01:27;7.00;;;3.80;;
42006;SDS011;27696;42.704;23.304;2023-02-01T05:03:52;6.50;;;3.80;;
42006;SDS011;27696;42.704;23.304;2023-02-01T05:06:18;6.68;;;4.82;;
42006;SDS011;27696;42.704;23.304;2023-02-01T05:08:43;7.35;;;4.88;;
42006;SDS011;27696;42.704;23.304;2023-02-01T05:11:09;6.25;;;4.00;;
42006;SDS011;27696;42.704;23.304;2023-02-01T05:13:57;6.05;;;3.88;;
42006;SDS011;27696;42.704;23.304;2023-02-01T05:16:23;9.55;;;3.72;;
42006;SDS011;27696;42.704;23.304;2023-02-01T05:18:49;9.23;;;4.68;;
42006;SDS011;27696;42.704;23.304;2023-02-01T05:21:14;6.60;;;4.85;;
42006;SDS011;27696;42.704;23.304;2023-02-01T05:23:39;8.70;;;4.47;;
42006;SDS011;27696;42.704;23.304;2023-02-01T05:26:23;6.68;;;4.78;;
42006;SDS011;27696;42.704;23.304;2023-02-01T05:28:49;6.97;;;4.03;;
42006;SDS011;27696;42.704;23.304;2023-02-01T05:31:15;9.55;;;4.32;;
42006;SDS011;27696;42.704;23.304;2023-02-01T05:33:40;11.75;;;3.90;;
42006;SDS011;27696;42.704;23.304;2023-02-01T05:36:06;6.95;;;3.80;;
42006;SDS011;27696;42.704;23.304;2023-02-01T05:38:32;6.68;;;3.90;;
42006;SDS011;27696;42.704;23.304;2023-02-01T05:40:57;6.53;;;3.45;;
42006;SDS011;27696;42.704;23.304;2023-02-01T05:43:22;6.57;;;3.45;;
42006;SDS011;27696;42.704;23.304;2023-02-01T05:45:48;9.45;;;4.07;;
42006;SDS011;27696;42.704;23.304;2023-02-01T05:48:13;7.20;;;4.00;;
42006;SDS011;27696;42.704;23.304;2023-02-01T05:50:39;6.35;;;4.20;;
42006;SDS011;27696;42.704;23.304;2023-02-01T05:53:04;9.45;;;4.60;;
42006;SDS011;27696;42.704;23.304;2023-02-01T05:55:29;9.57;;;4.90;;
42006;SDS011;27696;42.704;23.304;2023-02-01T05:57:55;9.40;;;5.38;;
42006;SDS011;27696;42.704;23.304;2023-02-01T06:00:20;8.60;;;4.50;;
42006;SDS011;27696;42.704;23.304;2023-02-01T06:02:46;15.63;;;4.57;;
42006;SDS011;27696;42.704;23.304;2023-02-01T06:05:12;5.95;;;4.20;;
42006;SDS011;27696;42.704;23.304;2023-02-01T06:07:37;6.80;;;3.92;;
42006;SDS011;27696;42.704;23.304;2023-02-01T06:10:02;4.88;;;3.30;;
42006;SDS011;27696;42.704;23.304;2023-02-01T06:12:28;6.05;;;3.92;;
42006;SDS011;27696;42.704;23.304;2023-02-01T06:14:54;9.55;;;3.72;;
42006;SDS011;27696;42.704;23.304;2023-02-01T06:17:19;7.78;;;3.85;;
42006;SDS011;27696;42.704;23.304;2023-02-01T06:19:45;7.50;;;3.65;;
42006;SDS011;27696;42.704;23.304;2023-02-01T06:22:13;10.23;;;3.40;;
42006;SDS011;27696;42.704;23.304;2023-02-01T06:24:39;6.53;;;3.28;;
42006;SDS011;27696;42.704;23.304;2023-02-01T06:27:05;4.88;;;3.17;;
42006;SDS011;27696;42.704;23.304;2023-02-01T06:29:31;5.38;;;2.90;;
42006;SDS011;27696;42.704;23.304;2023-02-01T06:31:57;8.57;;;3.72;;
42006;SDS011;27696;42.704;23.304;2023-02-01T06:34:22;5.93;;;3.58;;
42006;SDS011;27696;42.704;23.304;2023-02-01T06:36:48;5.60;;;3.47;;
42006;SDS011;27696;42.704;23.304;2023-02-01T06:39:14;5.80;;;3.08;;
42006;SDS011;27696;42.704;23.304;2023-02-01T06:41:41;10.95;;;4.25;;
42006;SDS011;27696;42.704;23.304;2023-02-01T06:44:15;9.18;;;3.13;;
42006;SDS011;27696;42.704;23.304;2023-02-01T06:46:41;6.80;;;3.42;;
42006;SDS011;27696;42.704;23.304;2023-02-01T06:49:07;7.05;;;4.03;;
42006;SDS011;27696;42.704;23.304;2023-02-01T06:51:33;8.93;;;3.13;;
42006;SDS011;27696;42.704;23.304;2023-02-01T06:53:59;6.78;;;2.90;;
42006;SDS011;27696;42.704;23.304;2023-02-01T06:56:25;6.22;;;2.78;;
42006;SDS011;27696;42.704;23.304;2023-02-01T06:58:56;7.10;;;3.00;;
42006;SDS011;27696;42.704;23.304;2023-02-01T07:01:23;8.32;;;3.63;;
42006;SDS011;27696;42.704;23.304;2023-02-01T07:03:49;5.45;;;2.95;;
42006;SDS011;27696;42.704;23.304;2023-02-01T07:06:15;6.20;;;3.03;;
42006;SDS011;27696;42.704;23.304;2023-02-01T07:08:41;6.35;;;2.85;;
42006;SDS011;27696;42.704;23.304;2023-02-01T07:11:08;5.43;;;3.00;;
42006;SDS011;27696;42.704;23.304;2023-02-01T07:13:35;5.45;;;3.53;;
42006;SDS011;27696;42.704;23.304;2023-02-01T07:16:01;7.93;;;3.13;;
42006;SDS011;27696;42.704;23.304;2023-02-01T07:18:28;6.50;;;2.60;;
42006;SDS011;27696;42.704;23.304;2023-02-01T07:20:54;5.53;;;2.72;;
42006;SDS011;27696;42.704;23.304;2023-02-01T07:23:20;10.02;;;3.22;;
42006;SDS011;27696;42.704;23.304;2023-02-01T07:25:45;8.23;;;4.00;;
42006;SDS011;27696;42.704;23.304;2023-02-01T07:28:11;7.93;;;4.03;;
42006;SDS011;27696;42.704;23.304;2023-02-01T07:30:37;8.77;;;3.30;;
42006;SDS011;27696;42.704;23.304;2023-02-01T07:33:02;5.82;;;3.22;;
42006;SDS011;27696;42.704;23.304;2023-02-01T07:35:28;7.63;;;3.35;;
42006;SDS011;27696;42.704;23.304;2023-02-01T07:37:56;7.55;;;3.60;;
42006;SDS011;27696;42.704;23.304;2023-02-01T07:40:23;10.88;;;3.92;;
42006;SDS011;27696;42.704;23.304;2023-02-01T07:42:53;7.35;;;4.18;;
42006;SDS011;27696;42.704;23.304;2023-02-01T07:45:20;5.60;;;2.85;;
42006;SDS011;27696;42.704;23.304;2023-02-01T07:47:46;6.60;;;3.05;;
42006;SDS011;27696;42.704;23.304;2023-02-01T07:50:11;11.23;;;3.85;;
42006;SDS011;27696;42.704;23.304;2023-02-01T07:52:37;8.05;;;3.85;;
42006;SDS011;27696;42.704;23.304;2023-02-01T07:55:02;12.15;;;5.15;;
42006;SDS011;27696;42.704;23.304;2023-02-01T07:57:27;8.55;;;4.78;;
42006;SDS011;27696;42.704;23.304;2023-02-01T07:59:53;4.78;;;3.22;;
42006;SDS011;27696;42.704;23.304;2023-02-01T08:02:37;6.68;;;3.25;;
42006;SDS011;27696;42.704;23.304;2023-02-01T08:05:05;6.25;;;3.20;;
42006;SDS011;27696;42.704;23.304;2023-02-01T08:07:31;4.82;;;3.17;;
42006;SDS011;27696;42.704;23.304;2023-02-01T08:09:56;6.80;;;3.08;;
42006;SDS011;27696;42.704;23.304;2023-02-01T08:12:21;13.20;;;3.20;;
42006;SDS011;27696;42.704;23.304;2023-02-01T08:14:47;7.20;;;3.72;;
42006;SDS011;27696;42.704;23.304;2023-02-01T08:17:12;5.38;;;3.47;;
42006;SDS011;27696;42.704;23.304;2023-02-01T08:19:38;6.82;;;2.60;;
42006;SDS011;27696;42.704;23.304;2023-02-01T08:22:03;6.13;;;3.30;;
42006;SDS011;27696;42.704;23.304;2023-02-01T08:24:32;11.65;;;2.95;;
42006;SDS011;27696;42.704;23.304;2023-02-01T08:26:58;8.13;;;2.97;;
42006;SDS011;27696;42.704;23.304;2023-02-01T08:29:26;6.50;;;3.55;;
42006;SDS011;27696;42.704;23.304;2023-02-01T08:31:51;7.40;;;2.92;;
42006;SDS011;27696;42.704;23.304;2023-02-01T08:34:18;6.72;;;2.60;;
42006;SDS011;27696;42.704;23.304;2023-02-01T08:36:43;6.68;;;3.42;;
42006;SDS011;27696;42.704;23.304;2023-02-01T08:39:09;6.53;;;3.05;;
42006;SDS011;27696;42.704;23.304;2023-02-01T08:41:36;5.43;;;2.95;;
42006;SDS011;27696;42.704;23.304;2023-02-01T08:44:01;6.53;;;2.22;;
42006;SDS011;27696;42.704;23.304;2023-02-01T08:46:27;6.38;;;3.17;;
42006;SDS011;27696;42.704;23.304;2023-02-01T08:48:52;6.45;;;2.42;;
42006;SDS011;27696;42.704;23.304;2023-02-01T08:51:20;6.72;;;2.65;;
42006;SDS011;27696;42.704;23.304;2023-02-01T08:53:47;9.18;;;3.08;;
42006;SDS011;27696;42.704;23.304;2023-02-01T08:56:14;6.65;;;2.80;;
42006;SDS011;27696;42.704;23.304;2023-02-01T08:58:40;7.88;;;3.10;;
42006;SDS011;27696;42.704;23.304;2023-02-01T09:01:07;7.25;;;2.70;;
42006;SDS011;27696;42.704;23.304;2023-02-01T09:03:39;7.03;;;2.42;;
42006;SDS011;27696;42.704;23.304;2023-02-01T09:06:09;5.90;;;2.65;;
42006;SDS011;27696;42.704;23.304;2023-02-01T09:08:36;8.88;;;2.45;;
42006;SDS011;27696;42.704;23.304;2023-02-01T09:11:04;6.10;;;2.47;;
42006;SDS011;27696;42.704;23.304;2023-02-01T09:13:31;3.60;;;2.13;;
42006;SDS011;27696;42.704;23.304;2023-02-01T09:15:56;11.93;;;2.88;;
42006;SDS011;27696;42.704;23.304;2023-02-01T09:18:24;6.50;;;2.83;;
42006;SDS011;27696;42.704;23.304;2023-02-01T09:20:50;9.65;;;3.17;;
42006;SDS011;27696;42.704;23.304;2023-02-01T09:23:15;5.75;;;2.55;;
42006;SDS011;27696;42.704;23.304;2023-02-01T09:25:41;5.35;;;2.40;;
42006;SDS011;27696;42.704;23.304;2023-02-01T09:28:06;6.32;;;2.92;;
42006;SDS011;27696;42.704;23.304;2023-02-01T09:30:34;5.85;;;2.30;;
42006;SDS011;27696;42.704;23.304;2023-02-01T09:33:00;5.72;;;2.25;;
42006;SDS011;27696;42.704;23.304;2023-02-01T09:35:25;4.65;;;1.92;;
42006;SDS011;27696;42.704;23.304;2023-02-01T09:37:52;5.70;;;2.58;;
42006;SDS011;27696;42.704;23.304;2023-02-01T09:40:18;7.18;;;2.28;;
42006;SDS011;27696;42.704;23.304;2023-02-01T09:48:08;5.70;;;2.85;;
42006;SDS011;27696;42.704;23.304;2023-02-01T09:50:38;4.97;;;2.10;;
42006;SDS011;27696;42.704;23.304;2023-02-01T09:53:06;5.10;;;1.90;;
42006;SDS011;27696;42.704;23.304;2023-02-01T09:58:27;3.45;;;1.70;;
42006;SDS011;27696;42.704;23.304;2023-02-01T10:00:56;3.40;;;2.33;;
42006;SDS011;27696;42.704;23.304;2023-02-01T10:03:24;5.20;;;2.33;;
42006;SDS011;27696;42.704;23.304;2023-02-01T10:08:38;5.88;;;2.10;;
42006;SDS011;27696;42.704;23.304;2023-02-01T10:11:27;6.78;;;2.42;;
42006;SDS011;27696;42.704;23.304;2023-02-01T10:17:15;6.55;;;2.65;;
42006;SDS011;27696;42.704;23.304;2023-02-01T10:20:01;5.20;;;2.80;;
42006;SDS011;27696;42.704;23.304;2023-02-01T10:27:54;4.68;;;2.30;;
42006;SDS011;27696;42.704;23.304;2023-02-01T10:30:24;7.05;;;2.92;;
42006;SDS011;27696;42.704;23.304;2023-02-01T10:32:52;6.38;;;2.70;;
42006;SDS011;27696;42.704;23.304;2023-02-01T10:35:26;6.03;;;2.25;;
42006;SDS011;27696;42.704;23.304;2023-02-01T10:37:53;2.95;;;2.20;;
42006;SDS011;27696;42.704;23.304;2023-02-01T10:40:23;5.95;;;2.65;;
42006;SDS011;27696;42.704;23.304;2023-02-01T10:42:54;5.60;;;2.80;;
42006;SDS011;27696;42.704;23.304;2023-02-01T10:45:24;5.68;;;2.50;;
42006;SDS011;27696;42.704;23.304;2023-02-01T10:47:52;3.88;;;2.03;;
42006;SDS011;27696;42.704;23.304;2023-02-01T10:50:26;5.63;;;2.47;;
42006;SDS011;27696;42.704;23.304;2023-02-01T10:53:11;5.55;;;2.15;;
42006;SDS011;27696;42.704;23.304;2023-02-01T10:55:41;4.10;;;2.25;;
42006;SDS011;27696;42.704;23.304;2023-02-01T11:00:44;8.30;;;4.50;;
42006;SDS011;27696;42.704;23.304;2023-02-01T11:06:13;6.00;;;3.53;;
42006;SDS011;27696;42.704;23.304;2023-02-01T11:08:45;7.43;;;3.28;;
42006;SDS011;27696;42.704;23.304;2023-02-01T11:11:12;6.53;;;3.05;;
42006;SDS011;27696;42.704;23.304;2023-02-01T11:13:38;4.45;;;1.95;;
42006;SDS011;27696;42.704;23.304;2023-02-01T11:16:04;7.13;;;2.88;;
42006;SDS011;27696;42.704;23.304;2023-02-01T11:18:32;5.22;;;2.58;;
42006;SDS011;27696;42.704;23.304;2023-02-01T11:21:00;3.08;;;1.75;;
42006;SDS011;27696;42.704;23.304;2023-02-01T11:23:27;3.78;;;1.85;;
42006;SDS011;27696;42.704;23.304;2023-02-01T11:25:55;3.15;;;1.90;;
42006;SDS011;27696;42.704;23.304;2023-02-01T11:28:23;6.50;;;2.25;;
42006;SDS011;27696;42.704;23.304;2023-02-01T11:30:50;3.50;;;2.05;;
42006;SDS011;27696;42.704;23.304;2023-02-01T11:33:20;7.47;;;2.13;;
42006;SDS011;27696;42.704;23.304;2023-02-01T11:35:49;6.28;;;3.03;;
42006;SDS011;27696;42.704;23.304;2023-02-01T11:38:21;5.15;;;2.75;;
42006;SDS011;27696;42.704;23.304;2023-02-01T11:40:49;4.60;;;2.88;;
42006;SDS011;27696;42.704;23.304;2023-02-01T11:46:16;2.90;;;1.88;;
42006;SDS011;27696;42.704;23.304;2023-02-01T11:48:41;4.57;;;2.20;;
42006;SDS011;27696;42.704;23.304;2023-02-01T11:56:13;8.38;;;2.40;;
42006;SDS011;27696;42.704;23.304;2023-02-01T12:01:37;5.90;;;2.00;;
42006;SDS011;27696;42.704;23.304;2023-02-01T12:23:32;4.10;;;1.25;;
42006;SDS011;27696;42.704;23.304;2023-02-01T12:40:36;4.03;;;1.75;;
42006;SDS011;27696;42.704;23.304;2023-02-01T12:43:08;2.65;;;1.45;;
42006;SDS011;27696;42.704;23.304;2023-02-01T12:45:45;6.53;;;1.77;;
42006;SDS011;27696;42.704;23.304;2023-02-01T12:50:53;2.72;;;1.73;;
42006;SDS011;27696;42.704;23.304;2023-02-01T12:55:55;4.40;;;1.52;;
42006;SDS011;27696;42.704;23.304;2023-02-01T13:06:20;2.17;;;1.70;;
42006;SDS011;27696;42.704;23.304;2023-02-01T13:13:59;6.25;;;1.75;;
42006;SDS011;27696;42.704;23.304;2023-02-01T13:16:32;2.80;;;1.88;;
42006;SDS011;27696;42.704;23.304;2023-02-01T13:19:12;4.90;;;2.20;;
42006;SDS011;27696;42.704;23.304;2023-02-01T13:21:46;5.07;;;1.70;;
42006;SDS011;27696;42.704;23.304;2023-02-01T13:24:57;3.40;;;1.70;;
42006;SDS011;27696;42.704;23.304;2023-02-01T13:27:02;7.00;;;2.20;;
42006;SDS011;27696;42.704;23.304;2023-02-01T13:29:28;4.43;;;1.65;;
42006;SDS011;27696;42.704;23.304;2023-02-01T13:42:29;2.33;;;1.50;;
42006;SDS011;27696;42.704;23.304;2023-02-01T13:45:00;3.60;;;1.80;;
42006;SDS011;27696;42.704;23.304;2023-02-01T13:47:31;4.10;;;1.58;;
42006;SDS011;27696;42.704;23.304;2023-02-01T13:49:59;3.88;;;2.00;;
42006;SDS011;27696;42.704;23.304;2023-02-01T13:53:13;3.58;;;1.50;;
42006;SDS011;27696;42.704;23.304;2023-02-01T13:57:44;5.47;;;2.08;;
42006;SDS011;27696;42.704;23.304;2023-02-01T14:00:23;4.68;;;2.80;;
42006;SDS011;27696;42.704;23.304;2023-02-01T14:23:41;3.63;;;1.80;;
42006;SDS011;27696;42.704;23.304;2023-02-01T14:26:08;2.88;;;1.55;;
42006;SDS011;27696;42.704;23.304;2023-02-01T14:28:44;4.32;;;1.90;;
42006;SDS011;27696;42.704;23.304;2023-02-01T14:31:17;3.50;;;2.00;;
42006;SDS011;27696;42.704;23.304;2023-02-01T14:33:55;5.30;;;2.70;;
42006;SDS011;27696;42.704;23.304;2023-02-01T14:36:23;5.22;;;2.95;;
42006;SDS011;27696;42.704;23.304;2023-02-01T14:38:49;2.78;;;2.13;;
42006;SDS011;27696;42.704;23.304;2023-02-01T14:41:26;3.83;;;2.47;;
42006;SDS011;27696;42.704;23.304;2023-02-01T14:49:33;5.03;;;1.98;;
42006;SDS011;27696;42.704;23.304;2023-02-01T14:52:02;3.30;;;2.20;;
42006;SDS011;27696;42.704;23.304;2023-02-01T14:54:31;3.67;;;2.00;;
42006;SDS011;27696;42.704;23.304;2023-02-01T14:56:57;4.88;;;2.03;;
42006;SDS011;27696;42.704;23.304;2023-02-01T14:59:23;3.25;;;2.03;;
42006;SDS011;27696;42.704;23.304;2023-02-01T15:01:56;3.97;;;2.10;;
42006;SDS011;27696;42.704;23.304;2023-02-01T15:04:25;3.92;;;2.58;;
42006;SDS011;27696;42.704;23.304;2023-02-01T15:06:55;5.53;;;3.88;;
42006;SDS011;27696;42.704;23.304;2023-02-01T15:14:43;7.13;;;3.70;;
42006;SDS011;27696;42.704;23.304;2023-02-01T15:17:24;9.35;;;3.45;;
42006;SDS011;27696;42.704;23.304;2023-02-01T15:19:54;4.45;;;2.70;;
42006;SDS011;27696;42.704;23.304;2023-02-01T15:22:21;9.85;;;6.05;;
42006;SDS011;27696;42.704;23.304;2023-02-01T15:24:53;16.27;;;7.22;;
42006;SDS011;27696;42.704;23.304;2023-02-01T15:27:19;15.07;;;7.30;;
42006;SDS011;27696;42.704;23.304;2023-02-01T15:29:45;15.55;;;7.78;;
42006;SDS011;27696;42.704;23.304;2023-02-01T15:32:29;12.55;;;8.73;;
42006;SDS011;27696;42.704;23.304;2023-02-01T15:34:56;13.80;;;9.85;;
42006;SDS011;27696;42.704;23.304;2023-02-01T15:37:22;17.80;;;9.50;;
42006;SDS011;27696;42.704;23.304;2023-02-01T15:42:28;11.90;;;7.53;;
42006;SDS011;27696;42.704;23.304;2023-02-01T15:44:54;7.78;;;4.97;;
42006;SDS011;27696;42.704;23.304;2023-02-01T15:47:20;8.52;;;4.22;;
42006;SDS011;27696;42.704;23.304;2023-02-01T15:49:56;8.25;;;5.28;;
42006;SDS011;27696;42.704;23.304;2023-02-01T15:52:36;9.95;;;5.80;;
42006;SDS011;27696;42.704;23.304;2023-02-01T15:55:05;13.13;;;7.20;;
42006;SDS011;27696;42.704;23.304;2023-02-01T15:57:45;10.77;;;5.18;;
42006;SDS011;27696;42.704;23.304;2023-02-01T16:00:27;10.13;;;6.80;;
42006;SDS011;27696;42.704;23.304;2023-02-01T16:02:58;12.40;;;6.53;;
42006;SDS011;27696;42.704;23.304;2023-02-01T16:08:06;9.88;;;6.78;;
42006;SDS011;27696;42.704;23.304;2023-02-01T16:10:40;11.90;;;6.25;;
42006;SDS011;27696;42.704;23.304;2023-02-01T16:13:07;10.85;;;6.40;;
42006;SDS011;27696;42.704;23.304;2023-02-01T16:15:32;9.93;;;6.28;;
42006;SDS011;27696;42.704;23.304;2023-02-01T16:17:57;7.43;;;4.45;;
42006;SDS011;27696;42.704;23.304;2023-02-01T16:20:23;9.82;;;5.68;;
42006;SDS011;27696;42.704;23.304;2023-02-01T16:22:49;9.00;;;5.75;;
42006;SDS011;27696;42.704;23.304;2023-02-01T16:25:14;10.02;;;5.30;;
42006;SDS011;27696;42.704;23.304;2023-02-01T16:27:39;13.88;;;5.53;;
42006;SDS011;27696;42.704;23.304;2023-02-01T16:30:05;7.80;;;5.38;;
42006;SDS011;27696;42.704;23.304;2023-02-01T16:32:34;7.82;;;5.35;;
42006;SDS011;27696;42.704;23.304;2023-02-01T16:35:03;10.63;;;5.40;;
42006;SDS011;27696;42.704;23.304;2023-02-01T16:37:30;8.95;;;5.13;;
42006;SDS011;27696;42.704;23.304;2023-02-01T16:39:57;9.65;;;5.97;;
42006;SDS011;27696;42.704;23.304;2023-02-01T16:42:22;11.13;;;6.25;;
42006;SDS011;27696;42.704;23.304;2023-02-01T16:44:48;11.68;;;6.38;;
42006;SDS011;27696;42.704;23.304;2023-02-01T16:47:20;11.50;;;5.97;;
42006;SDS011;27696;42.704;23.304;2023-02-01T16:49:47;11.75;;;5.25;;
42006;SDS011;27696;42.704;23.304;2023-02-01T16:52:16;7.78;;;5.38;;
42006;SDS011;27696;42.704;23.304;2023-02-01T16:54:43;12.07;;;7.43;;
42006;SDS011;27696;42.704;23.304;2023-02-01T16:57:12;16.38;;;8.90;;
42006;SDS011;27696;42.704;23.304;2023-02-01T16:59:39;20.63;;;9.70;;
42006;SDS011;27696;42.704;23.304;2023-02-01T17:02:05;13.77;;;8.15;;
42006;SDS011;27696;42.704;23.304;2023-02-01T17:04:30;15.02;;;8.45;;
42006;SDS011;27696;42.704;23.304;2023-02-01T17:06:56;15.38;;;8.43;;
42006;SDS011;27696;42.704;23.304;2023-02-01T17:09:23;13.55;;;8.05;;
42006;SDS011;27696;42.704;23.304;2023-02-01T17:11:50;13.40;;;6.88;;
42006;SDS011;27696;42.704;23.304;2023-02-01T17:14:16;13.07;;;7.47;;
42006;SDS011;27696;42.704;23.304;2023-02-01T17:16:45;13.23;;;7.25;;
42006;SDS011;27696;42.704;23.304;2023-02-01T17:19:12;11.57;;;7.53;;
42006;SDS011;27696;42.704;23.304;2023-02-01T17:21:44;13.48;;;7.10;;
42006;SDS011;27696;42.704;23.304;2023-02-01T17:24:19;12.30;;;6.80;;
42006;SDS011;27696;42.704;23.304;2023-02-01T17:26:46;13.32;;;8.40;;
42006;SDS011;27696;42.704;23.304;2023-02-01T17:29:11;13.95;;;8.05;;